Osakis, Minnesota
Current Conditions -  °F | °C
As of 11:53 AM on Saturday 22 Nov 2014 (Local Time) from KAXN Reporting Station
Clear Clear  
Wind Chill: 33°   Ceiling: Unl
Heat Index: 38°   Visibility: 10mi
Dew Point: 29°   Wind: 7mph
Humidity: 70%   Direction: 190°S
Pressure: 29.61"   Gusts: NA
Location:  45.87°N, 95.15°W
Report Text: KAXN 221753Z AUTO 19006KT 10SM CLR 03/M02 A2961 RMK AO2 SLP043 I6000 T00331017 10033 21044 58019
Loading
Personal Weather Stations






























Interactive Weather Map New forecast layout! Learn more

10-Day Weather Forecast

Advertisements
Track Severe Weather on mobile